sensor_id;sensor_type;location;lat;lon;timestamp;P1;durP1;ratioP1;P2;durP2;ratioP2
29574;SDS011;16507;51.046;6.406;2022-12-18T00:01:24;54.33;;;20.52;;
29574;SDS011;16507;51.046;6.406;2022-12-18T00:03:52;47.30;;;19.67;;
29574;SDS011;16507;51.046;6.406;2022-12-18T00:06:19;45.70;;;19.83;;
29574;SDS011;16507;51.046;6.406;2022-12-18T00:08:45;48.70;;;19.15;;
29574;SDS011;16507;51.046;6.406;2022-12-18T00:11:13;42.15;;;18.83;;
29574;SDS011;16507;51.046;6.406;2022-12-18T00:13:40;41.75;;;18.42;;
29574;SDS011;16507;51.046;6.406;2022-12-18T00:16:07;40.15;;;18.63;;
29574;SDS011;16507;51.046;6.406;2022-12-18T00:18:35;45.65;;;19.67;;
29574;SDS011;16507;51.046;6.406;2022-12-18T00:21:02;43.25;;;18.60;;
29574;SDS011;16507;51.046;6.406;2022-12-18T00:23:30;47.70;;;19.65;;
29574;SDS011;16507;51.046;6.406;2022-12-18T00:26:03;52.15;;;19.88;;
29574;SDS011;16507;51.046;6.406;2022-12-18T00:28:31;43.05;;;19.33;;
29574;SDS011;16507;51.046;6.406;2022-12-18T00:31:10;47.90;;;18.90;;
29574;SDS011;16507;51.046;6.406;2022-12-18T00:33:38;45.42;;;18.52;;
29574;SDS011;16507;51.046;6.406;2022-12-18T00:36:10;45.13;;;18.90;;
29574;SDS011;16507;51.046;6.406;2022-12-18T00:38:38;39.90;;;18.42;;
29574;SDS011;16507;51.046;6.406;2022-12-18T00:41:05;45.33;;;18.33;;
29574;SDS011;16507;51.046;6.406;2022-12-18T00:43:31;45.83;;;19.23;;
29574;SDS011;16507;51.046;6.406;2022-12-18T00:45:57;48.55;;;19.45;;
29574;SDS011;16507;51.046;6.406;2022-12-18T00:48:23;46.75;;;19.30;;
29574;SDS011;16507;51.046;6.406;2022-12-18T00:50:51;51.75;;;18.10;;
29574;SDS011;16507;51.046;6.406;2022-12-18T00:53:17;45.65;;;18.30;;
29574;SDS011;16507;51.046;6.406;2022-12-18T00:55:43;47.92;;;18.25;;
29574;SDS011;16507;51.046;6.406;2022-12-18T00:58:09;40.58;;;18.02;;
29574;SDS011;16507;51.046;6.406;2022-12-18T01:00:36;43.38;;;17.88;;
29574;SDS011;16507;51.046;6.406;2022-12-18T01:03:03;43.03;;;17.15;;
29574;SDS011;16507;51.046;6.406;2022-12-18T01:05:29;49.78;;;18.65;;
29574;SDS011;16507;51.046;6.406;2022-12-18T01:07:56;44.67;;;18.58;;
29574;SDS011;16507;51.046;6.406;2022-12-18T01:10:22;46.50;;;18.55;;
29574;SDS011;16507;51.046;6.406;2022-12-18T01:12:48;50.40;;;18.75;;
29574;SDS011;16507;51.046;6.406;2022-12-18T01:15:14;46.63;;;17.90;;
29574;SDS011;16507;51.046;6.406;2022-12-18T01:17:41;41.17;;;18.38;;
29574;SDS011;16507;51.046;6.406;2022-12-18T01:20:07;55.72;;;19.13;;
29574;SDS011;16507;51.046;6.406;2022-12-18T01:22:34;43.58;;;18.08;;
29574;SDS011;16507;51.046;6.406;2022-12-18T01:25:00;45.67;;;18.50;;
29574;SDS011;16507;51.046;6.406;2022-12-18T01:27:26;42.83;;;18.40;;
29574;SDS011;16507;51.046;6.406;2022-12-18T01:29:52;50.75;;;19.48;;
29574;SDS011;16507;51.046;6.406;2022-12-18T01:32:17;44.63;;;18.27;;
29574;SDS011;16507;51.046;6.406;2022-12-18T01:34:43;48.28;;;17.90;;
29574;SDS011;16507;51.046;6.406;2022-12-18T01:37:08;42.92;;;18.63;;
29574;SDS011;16507;51.046;6.406;2022-12-18T01:39:34;40.90;;;17.88;;
29574;SDS011;16507;51.046;6.406;2022-12-18T01:42:00;37.08;;;17.15;;
29574;SDS011;16507;51.046;6.406;2022-12-18T01:49:49;40.72;;;17.15;;
29574;SDS011;16507;51.046;6.406;2022-12-18T01:52:15;42.15;;;16.92;;
29574;SDS011;16507;51.046;6.406;2022-12-18T01:54:42;41.03;;;17.15;;
29574;SDS011;16507;51.046;6.406;2022-12-18T01:57:09;39.95;;;16.98;;
29574;SDS011;16507;51.046;6.406;2022-12-18T01:59:36;39.17;;;16.17;;
29574;SDS011;16507;51.046;6.406;2022-12-18T02:02:02;41.35;;;17.25;;
29574;SDS011;16507;51.046;6.406;2022-12-18T02:04:28;45.08;;;17.13;;
29574;SDS011;16507;51.046;6.406;2022-12-18T02:06:55;40.30;;;17.05;;
29574;SDS011;16507;51.046;6.406;2022-12-18T02:09:41;38.17;;;17.02;;
29574;SDS011;16507;51.046;6.406;2022-12-18T02:12:17;41.85;;;16.90;;
29574;SDS011;16507;51.046;6.406;2022-12-18T02:14:58;44.63;;;17.27;;
29574;SDS011;16507;51.046;6.406;2022-12-18T02:17:40;40.97;;;16.63;;
29574;SDS011;16507;51.046;6.406;2022-12-18T02:20:21;38.13;;;17.45;;
29574;SDS011;16507;51.046;6.406;2022-12-18T02:26:17;44.78;;;17.70;;
29574;SDS011;16507;51.046;6.406;2022-12-18T02:31:39;45.55;;;17.75;;
29574;SDS011;16507;51.046;6.406;2022-12-18T02:34:10;46.28;;;17.60;;
29574;SDS011;16507;51.046;6.406;2022-12-18T02:36:38;49.08;;;18.63;;
29574;SDS011;16507;51.046;6.406;2022-12-18T02:39:06;48.55;;;19.02;;
29574;SDS011;16507;51.046;6.406;2022-12-18T02:41:35;45.88;;;18.23;;
29574;SDS011;16507;51.046;6.406;2022-12-18T02:44:06;50.90;;;18.90;;
29574;SDS011;16507;51.046;6.406;2022-12-18T02:52:05;48.67;;;19.27;;
29574;SDS011;16507;51.046;6.406;2022-12-18T02:57:41;49.58;;;19.10;;
29574;SDS011;16507;51.046;6.406;2022-12-18T03:00:21;48.85;;;18.92;;
29574;SDS011;16507;51.046;6.406;2022-12-18T03:02:57;49.85;;;18.73;;
29574;SDS011;16507;51.046;6.406;2022-12-18T03:05:35;45.75;;;18.23;;
29574;SDS011;16507;51.046;6.406;2022-12-18T03:08:10;44.50;;;18.55;;
29574;SDS011;16507;51.046;6.406;2022-12-18T03:10:45;55.00;;;20.95;;
29574;SDS011;16507;51.046;6.406;2022-12-18T03:13:41;53.67;;;20.42;;
29574;SDS011;16507;51.046;6.406;2022-12-18T03:16:22;46.85;;;18.48;;
29574;SDS011;16507;51.046;6.406;2022-12-18T03:18:57;43.58;;;18.52;;
29574;SDS011;16507;51.046;6.406;2022-12-18T03:21:32;49.95;;;20.13;;
29574;SDS011;16507;51.046;6.406;2022-12-18T03:24:02;51.75;;;19.95;;
29574;SDS011;16507;51.046;6.406;2022-12-18T03:26:33;56.53;;;21.23;;
29574;SDS011;16507;51.046;6.406;2022-12-18T03:29:03;46.42;;;19.63;;
29574;SDS011;16507;51.046;6.406;2022-12-18T03:31:37;49.10;;;19.92;;
29574;SDS011;16507;51.046;6.406;2022-12-18T03:34:14;58.08;;;20.92;;
29574;SDS011;16507;51.046;6.406;2022-12-18T03:36:42;52.45;;;20.58;;
29574;SDS011;16507;51.046;6.406;2022-12-18T03:39:08;44.42;;;19.38;;
29574;SDS011;16507;51.046;6.406;2022-12-18T03:44:30;56.95;;;19.92;;
29574;SDS011;16507;51.046;6.406;2022-12-18T03:47:24;47.50;;;18.95;;
29574;SDS011;16507;51.046;6.406;2022-12-18T03:52:46;44.97;;;18.98;;
29574;SDS011;16507;51.046;6.406;2022-12-18T03:57:48;43.80;;;19.73;;
29574;SDS011;16507;51.046;6.406;2022-12-18T04:00:17;52.53;;;21.55;;
29574;SDS011;16507;51.046;6.406;2022-12-18T04:03:02;59.25;;;21.35;;
29574;SDS011;16507;51.046;6.406;2022-12-18T04:05:30;52.00;;;19.63;;
29574;SDS011;16507;51.046;6.406;2022-12-18T04:07:58;52.60;;;19.67;;
29574;SDS011;16507;51.046;6.406;2022-12-18T04:10:24;45.53;;;20.95;;
29574;SDS011;16507;51.046;6.406;2022-12-18T04:12:49;56.28;;;21.05;;
29574;SDS011;16507;51.046;6.406;2022-12-18T04:15:15;52.33;;;19.85;;
29574;SDS011;16507;51.046;6.406;2022-12-18T04:17:43;48.88;;;20.17;;
29574;SDS011;16507;51.046;6.406;2022-12-18T04:20:13;53.72;;;20.50;;
29574;SDS011;16507;51.046;6.406;2022-12-18T04:22:39;45.05;;;19.90;;
29574;SDS011;16507;51.046;6.406;2022-12-18T04:25:05;51.72;;;19.13;;
29574;SDS011;16507;51.046;6.406;2022-12-18T04:27:31;72.40;;;20.88;;
29574;SDS011;16507;51.046;6.406;2022-12-18T04:29:56;49.03;;;20.58;;
29574;SDS011;16507;51.046;6.406;2022-12-18T04:32:22;49.42;;;19.83;;
29574;SDS011;16507;51.046;6.406;2022-12-18T04:34:47;60.95;;;19.70;;
29574;SDS011;16507;51.046;6.406;2022-12-18T04:37:13;54.60;;;19.95;;
29574;SDS011;16507;51.046;6.406;2022-12-18T04:39:39;54.42;;;20.05;;
29574;SDS011;16507;51.046;6.406;2022-12-18T04:42:04;52.28;;;19.92;;
29574;SDS011;16507;51.046;6.406;2022-12-18T04:44:30;47.40;;;19.38;;
29574;SDS011;16507;51.046;6.406;2022-12-18T04:46:56;53.55;;;19.95;;
29574;SDS011;16507;51.046;6.406;2022-12-18T04:49:21;50.00;;;19.20;;
29574;SDS011;16507;51.046;6.406;2022-12-18T04:51:47;51.70;;;21.08;;
29574;SDS011;16507;51.046;6.406;2022-12-18T04:54:13;46.38;;;20.52;;
29574;SDS011;16507;51.046;6.406;2022-12-18T04:56:38;51.97;;;19.70;;
29574;SDS011;16507;51.046;6.406;2022-12-18T04:59:04;47.00;;;19.60;;
29574;SDS011;16507;51.046;6.406;2022-12-18T05:01:33;46.00;;;19.17;;
29574;SDS011;16507;51.046;6.406;2022-12-18T05:03:59;45.53;;;18.80;;
29574;SDS011;16507;51.046;6.406;2022-12-18T05:06:25;53.65;;;19.85;;
29574;SDS011;16507;51.046;6.406;2022-12-18T05:08:50;57.58;;;20.50;;
29574;SDS011;16507;51.046;6.406;2022-12-18T05:11:16;56.85;;;19.40;;
29574;SDS011;16507;51.046;6.406;2022-12-18T05:13:42;47.78;;;20.05;;
29574;SDS011;16507;51.046;6.406;2022-12-18T05:16:09;49.55;;;19.38;;
29574;SDS011;16507;51.046;6.406;2022-12-18T05:18:35;49.70;;;19.23;;
29574;SDS011;16507;51.046;6.406;2022-12-18T05:21:01;44.35;;;20.10;;
29574;SDS011;16507;51.046;6.406;2022-12-18T05:23:27;52.05;;;20.13;;
29574;SDS011;16507;51.046;6.406;2022-12-18T05:25:54;45.72;;;18.65;;
29574;SDS011;16507;51.046;6.406;2022-12-18T05:28:22;45.47;;;19.98;;
29574;SDS011;16507;51.046;6.406;2022-12-18T05:30:53;49.05;;;20.67;;
29574;SDS011;16507;51.046;6.406;2022-12-18T05:33:21;41.42;;;17.67;;
29574;SDS011;16507;51.046;6.406;2022-12-18T05:35:51;43.40;;;18.55;;
29574;SDS011;16507;51.046;6.406;2022-12-18T05:38:18;47.95;;;19.75;;
29574;SDS011;16507;51.046;6.406;2022-12-18T05:40:44;43.85;;;18.95;;
29574;SDS011;16507;51.046;6.406;2022-12-18T05:43:10;53.72;;;19.90;;
29574;SDS011;16507;51.046;6.406;2022-12-18T05:45:39;52.65;;;20.45;;
29574;SDS011;16507;51.046;6.406;2022-12-18T05:48:05;45.00;;;19.80;;
29574;SDS011;16507;51.046;6.406;2022-12-18T05:50:35;53.38;;;20.35;;
29574;SDS011;16507;51.046;6.406;2022-12-18T05:53:05;48.08;;;20.15;;
29574;SDS011;16507;51.046;6.406;2022-12-18T05:55:34;46.17;;;20.67;;
29574;SDS011;16507;51.046;6.406;2022-12-18T05:58:01;47.95;;;19.85;;
29574;SDS011;16507;51.046;6.406;2022-12-18T06:00:28;46.22;;;20.23;;
29574;SDS011;16507;51.046;6.406;2022-12-18T06:02:55;48.67;;;19.98;;
29574;SDS011;16507;51.046;6.406;2022-12-18T06:05:20;54.85;;;21.15;;
29574;SDS011;16507;51.046;6.406;2022-12-18T06:07:46;54.75;;;21.77;;
29574;SDS011;16507;51.046;6.406;2022-12-18T06:10:12;47.55;;;20.85;;
29574;SDS011;16507;51.046;6.406;2022-12-18T06:12:37;47.65;;;20.42;;
29574;SDS011;16507;51.046;6.406;2022-12-18T06:15:03;51.60;;;20.58;;
29574;SDS011;16507;51.046;6.406;2022-12-18T06:17:30;48.88;;;19.80;;
29574;SDS011;16507;51.046;6.406;2022-12-18T06:19:56;52.35;;;21.10;;
29574;SDS011;16507;51.046;6.406;2022-12-18T06:22:23;46.80;;;19.70;;
29574;SDS011;16507;51.046;6.406;2022-12-18T06:24:48;53.85;;;20.70;;
29574;SDS011;16507;51.046;6.406;2022-12-18T06:27:14;50.00;;;20.73;;
29574;SDS011;16507;51.046;6.406;2022-12-18T06:29:40;50.90;;;21.20;;
29574;SDS011;16507;51.046;6.406;2022-12-18T06:32:05;47.25;;;20.33;;
29574;SDS011;16507;51.046;6.406;2022-12-18T06:34:31;47.22;;;20.27;;
29574;SDS011;16507;51.046;6.406;2022-12-18T06:36:57;59.00;;;22.27;;
29574;SDS011;16507;51.046;6.406;2022-12-18T06:39:23;48.55;;;20.55;;
29574;SDS011;16507;51.046;6.406;2022-12-18T06:41:49;59.88;;;20.13;;
29574;SDS011;16507;51.046;6.406;2022-12-18T06:44:15;61.13;;;20.55;;
29574;SDS011;16507;51.046;6.406;2022-12-18T06:46:41;54.22;;;21.58;;
29574;SDS011;16507;51.046;6.406;2022-12-18T06:49:06;56.13;;;21.80;;
29574;SDS011;16507;51.046;6.406;2022-12-18T06:51:34;49.92;;;21.48;;
29574;SDS011;16507;51.046;6.406;2022-12-18T06:54:00;68.57;;;21.98;;
29574;SDS011;16507;51.046;6.406;2022-12-18T06:56:25;60.92;;;22.20;;
29574;SDS011;16507;51.046;6.406;2022-12-18T06:58:51;56.97;;;22.90;;
29574;SDS011;16507;51.046;6.406;2022-12-18T07:01:16;63.78;;;21.75;;
29574;SDS011;16507;51.046;6.406;2022-12-18T07:03:42;54.97;;;23.92;;
29574;SDS011;16507;51.046;6.406;2022-12-18T07:06:15;57.78;;;21.95;;
29574;SDS011;16507;51.046;6.406;2022-12-18T07:08:43;47.83;;;20.73;;
29574;SDS011;16507;51.046;6.406;2022-12-18T07:11:09;54.45;;;21.40;;
29574;SDS011;16507;51.046;6.406;2022-12-18T07:13:34;55.35;;;21.88;;
29574;SDS011;16507;51.046;6.406;2022-12-18T07:16:04;52.67;;;21.70;;
29574;SDS011;16507;51.046;6.406;2022-12-18T07:18:34;55.55;;;21.50;;
29574;SDS011;16507;51.046;6.406;2022-12-18T07:21:04;62.13;;;20.90;;
29574;SDS011;16507;51.046;6.406;2022-12-18T07:23:31;61.75;;;21.90;;
29574;SDS011;16507;51.046;6.406;2022-12-18T07:26:02;53.67;;;21.17;;
29574;SDS011;16507;51.046;6.406;2022-12-18T07:28:29;77.82;;;21.92;;
29574;SDS011;16507;51.046;6.406;2022-12-18T07:30:55;59.25;;;22.42;;
29574;SDS011;16507;51.046;6.406;2022-12-18T07:33:20;52.08;;;21.05;;
29574;SDS011;16507;51.046;6.406;2022-12-18T07:35:46;65.25;;;22.85;;
29574;SDS011;16507;51.046;6.406;2022-12-18T07:38:11;57.95;;;20.88;;
29574;SDS011;16507;51.046;6.406;2022-12-18T07:40:37;50.85;;;21.73;;
29574;SDS011;16507;51.046;6.406;2022-12-18T07:43:03;48.85;;;21.75;;
29574;SDS011;16507;51.046;6.406;2022-12-18T07:45:32;49.58;;;21.70;;
29574;SDS011;16507;51.046;6.406;2022-12-18T07:47:57;53.60;;;22.23;;
29574;SDS011;16507;51.046;6.406;2022-12-18T07:50:23;51.40;;;21.08;;
29574;SDS011;16507;51.046;6.406;2022-12-18T07:52:49;66.95;;;23.67;;
29574;SDS011;16507;51.046;6.406;2022-12-18T08:01:59;45.55;;;20.38;;
29574;SDS011;16507;51.046;6.406;2022-12-18T08:04:25;54.60;;;22.60;;
29574;SDS011;16507;51.046;6.406;2022-12-18T08:06:50;56.90;;;22.02;;
29574;SDS011;16507;51.046;6.406;2022-12-18T08:09:16;54.13;;;21.85;;
29574;SDS011;16507;51.046;6.406;2022-12-18T08:11:42;50.75;;;21.52;;
29574;SDS011;16507;51.046;6.406;2022-12-18T08:14:07;55.53;;;21.33;;
29574;SDS011;16507;51.046;6.406;2022-12-18T08:16:33;53.50;;;21.55;;
29574;SDS011;16507;51.046;6.406;2022-12-18T08:18:59;50.97;;;22.20;;
29574;SDS011;16507;51.046;6.406;2022-12-18T08:21:26;50.30;;;21.27;;
29574;SDS011;16507;51.046;6.406;2022-12-18T08:23:54;52.45;;;21.92;;
29574;SDS011;16507;51.046;6.406;2022-12-18T08:26:21;52.22;;;21.55;;
29574;SDS011;16507;51.046;6.406;2022-12-18T08:28:47;47.28;;;20.92;;
29574;SDS011;16507;51.046;6.406;2022-12-18T08:31:14;63.67;;;22.02;;
29574;SDS011;16507;51.046;6.406;2022-12-18T08:33:40;49.35;;;20.30;;
29574;SDS011;16507;51.046;6.406;2022-12-18T08:36:06;44.53;;;18.40;;
29574;SDS011;16507;51.046;6.406;2022-12-18T08:38:33;54.88;;;22.13;;
29574;SDS011;16507;51.046;6.406;2022-12-18T08:40:59;50.15;;;21.00;;
29574;SDS011;16507;51.046;6.406;2022-12-18T08:43:29;51.20;;;19.35;;
29574;SDS011;16507;51.046;6.406;2022-12-18T08:46:13;43.40;;;19.42;;
29574;SDS011;16507;51.046;6.406;2022-12-18T08:48:39;43.20;;;19.95;;
29574;SDS011;16507;51.046;6.406;2022-12-18T08:51:05;40.80;;;19.27;;
29574;SDS011;16507;51.046;6.406;2022-12-18T08:53:31;52.88;;;19.88;;
29574;SDS011;16507;51.046;6.406;2022-12-18T08:55:56;45.20;;;18.17;;
29574;SDS011;16507;51.046;6.406;2022-12-18T08:58:23;49.45;;;20.70;;
29574;SDS011;16507;51.046;6.406;2022-12-18T09:00:48;46.35;;;19.65;;
29574;SDS011;16507;51.046;6.406;2022-12-18T09:03:15;46.15;;;19.88;;
29574;SDS011;16507;51.046;6.406;2022-12-18T09:05:42;39.92;;;19.38;;
29574;SDS011;16507;51.046;6.406;2022-12-18T09:08:10;41.30;;;19.73;;
29574;SDS011;16507;51.046;6.406;2022-12-18T09:10:41;44.35;;;19.33;;
29574;SDS011;16507;51.046;6.406;2022-12-18T09:15:34;42.42;;;18.48;;
29574;SDS011;16507;51.046;6.406;2022-12-18T09:18:12;45.05;;;19.00;;
29574;SDS011;16507;51.046;6.406;2022-12-18T09:20:39;39.75;;;19.08;;
29574;SDS011;16507;51.046;6.406;2022-12-18T09:23:05;41.05;;;19.02;;
29574;SDS011;16507;51.046;6.406;2022-12-18T09:25:31;35.22;;;17.60;;
29574;SDS011;16507;51.046;6.406;2022-12-18T09:28:00;40.55;;;17.75;;
29574;SDS011;16507;51.046;6.406;2022-12-18T09:30:36;39.75;;;18.35;;
29574;SDS011;16507;51.046;6.406;2022-12-18T09:33:03;47.78;;;19.42;;
29574;SDS011;16507;51.046;6.406;2022-12-18T09:35:28;39.50;;;18.63;;
29574;SDS011;16507;51.046;6.406;2022-12-18T09:37:54;38.88;;;18.15;;
29574;SDS011;16507;51.046;6.406;2022-12-18T09:40:21;42.55;;;19.17;;
29574;SDS011;16507;51.046;6.406;2022-12-18T09:42:50;39.70;;;17.98;;
29574;SDS011;16507;51.046;6.406;2022-12-18T09:45:19;40.25;;;18.67;;
29574;SDS011;16507;51.046;6.406;2022-12-18T09:47:45;32.75;;;17.17;;
29574;SDS011;16507;51.046;6.406;2022-12-18T09:53:04;38.45;;;19.33;;
29574;SDS011;16507;51.046;6.406;2022-12-18T09:55:40;38.92;;;17.42;;
29574;SDS011;16507;51.046;6.406;2022-12-18T09:58:13;43.97;;;18.55;;
29574;SDS011;16507;51.046;6.406;2022-12-18T10:00:42;44.10;;;19.13;;
29574;SDS011;16507;51.046;6.406;2022-12-18T10:03:14;40.50;;;18.23;;
29574;SDS011;16507;51.046;6.406;2022-12-18T10:08:13;35.13;;;17.75;;
29574;SDS011;16507;51.046;6.406;2022-12-18T10:10:51;40.65;;;18.00;;
29574;SDS011;16507;51.046;6.406;2022-12-18T10:13:31;37.58;;;18.60;;
29574;SDS011;16507;51.046;6.406;2022-12-18T10:18:35;35.15;;;18.17;;
29574;SDS011;16507;51.046;6.406;2022-12-18T10:21:14;36.60;;;18.25;;
29574;SDS011;16507;51.046;6.406;2022-12-18T10:23:55;44.78;;;17.67;;
29574;SDS011;16507;51.046;6.406;2022-12-18T10:26:27;30.13;;;14.82;;
29574;SDS011;16507;51.046;6.406;2022-12-18T10:28:53;30.92;;;15.45;;
29574;SDS011;16507;51.046;6.406;2022-12-18T10:31:21;41.47;;;18.25;;
29574;SDS011;16507;51.046;6.406;2022-12-18T10:33:48;36.90;;;16.45;;
29574;SDS011;16507;51.046;6.406;2022-12-18T10:36:14;53.45;;;18.90;;
29574;SDS011;16507;51.046;6.406;2022-12-18T10:38:40;44.05;;;17.90;;
29574;SDS011;16507;51.046;6.406;2022-12-18T10:41:06;39.28;;;17.85;;
29574;SDS011;16507;51.046;6.406;2022-12-18T10:46:53;36.65;;;16.42;;
29574;SDS011;16507;51.046;6.406;2022-12-18T10:49:27;39.90;;;17.50;;
29574;SDS011;16507;51.046;6.406;2022-12-18T10:52:11;44.67;;;18.98;;
29574;SDS011;16507;51.046;6.406;2022-12-18T10:54:59;40.65;;;17.05;;
29574;SDS011;16507;51.046;6.406;2022-12-18T10:57:29;36.20;;;17.33;;
29574;SDS011;16507;51.046;6.406;2022-12-18T10:59:57;37.78;;;18.55;;
29574;SDS011;16507;51.046;6.406;2022-12-18T11:02:42;39.65;;;17.05;;
29574;SDS011;16507;51.046;6.406;2022-12-18T11:05:24;38.75;;;18.95;;
29574;SDS011;16507;51.046;6.406;2022-12-18T11:07:54;40.60;;;17.98;;
29574;SDS011;16507;51.046;6.406;2022-12-18T11:10:22;37.25;;;18.27;;
29574;SDS011;16507;51.046;6.406;2022-12-18T11:12:51;39.75;;;18.15;;
29574;SDS011;16507;51.046;6.406;2022-12-18T11:15:19;32.08;;;17.40;;
29574;SDS011;16507;51.046;6.406;2022-12-18T11:17:49;34.03;;;16.63;;
29574;SDS011;16507;51.046;6.406;2022-12-18T11:20:34;36.85;;;18.23;;
29574;SDS011;16507;51.046;6.406;2022-12-18T11:23:01;44.53;;;18.63;;
29574;SDS011;16507;51.046;6.406;2022-12-18T11:25:30;38.05;;;18.55;;
29574;SDS011;16507;51.046;6.406;2022-12-18T11:28:01;37.22;;;18.95;;
29574;SDS011;16507;51.046;6.406;2022-12-18T11:30:32;38.28;;;18.10;;
29574;SDS011;16507;51.046;6.406;2022-12-18T11:33:16;36.97;;;18.38;;
29574;SDS011;16507;51.046;6.406;2022-12-18T11:35:55;36.00;;;18.17;;
29574;SDS011;16507;51.046;6.406;2022-12-18T11:38:37;36.60;;;17.83;;
29574;SDS011;16507;51.046;6.406;2022-12-18T11:44:30;35.78;;;17.83;;
29574;SDS011;16507;51.046;6.406;2022-12-18T11:47:05;38.20;;;18.98;;
29574;SDS011;16507;51.046;6.406;2022-12-18T11:49:47;32.92;;;17.83;;
29574;SDS011;16507;51.046;6.406;2022-12-18T11:52:24;34.42;;;17.13;;
29574;SDS011;16507;51.046;6.406;2022-12-18T11:55:37;34.17;;;18.33;;
29574;SDS011;16507;51.046;6.406;2022-12-18T12:01:06;37.65;;;18.30;;
29574;SDS011;16507;51.046;6.406;2022-12-18T12:09:31;41.13;;;18.77;;
29574;SDS011;16507;51.046;6.406;2022-12-18T12:12:36;31.90;;;17.35;;
29574;SDS011;16507;51.046;6.406;2022-12-18T12:18:00;38.55;;;19.13;;
29574;SDS011;16507;51.046;6.406;2022-12-18T12:23:58;40.08;;;17.92;;
29574;SDS011;16507;51.046;6.406;2022-12-18T12:29:21;35.13;;;17.13;;
29574;SDS011;16507;51.046;6.406;2022-12-18T12:39:43;42.70;;;18.70;;
29574;SDS011;16507;51.046;6.406;2022-12-18T12:42:27;42.55;;;18.75;;
29574;SDS011;16507;51.046;6.406;2022-12-18T12:48:35;39.80;;;19.92;;
29574;SDS011;16507;51.046;6.406;2022-12-18T12:51:15;36.88;;;18.80;;
29574;SDS011;16507;51.046;6.406;2022-12-18T12:53:43;33.05;;;17.38;;
29574;SDS011;16507;51.046;6.406;2022-12-18T12:56:11;36.28;;;18.30;;
29574;SDS011;16507;51.046;6.406;2022-12-18T12:58:51;35.00;;;18.27;;
29574;SDS011;16507;51.046;6.406;2022-12-18T13:07:05;45.20;;;19.27;;
29574;SDS011;16507;51.046;6.406;2022-12-18T13:12:36;46.83;;;20.45;;
29574;SDS011;16507;51.046;6.406;2022-12-18T13:15:21;47.25;;;18.27;;
29574;SDS011;16507;51.046;6.406;2022-12-18T13:20:34;43.90;;;19.23;;
29574;SDS011;16507;51.046;6.406;2022-12-18T13:31:11;44.33;;;19.75;;
29574;SDS011;16507;51.046;6.406;2022-12-18T13:36:44;45.42;;;20.88;;
29574;SDS011;16507;51.046;6.406;2022-12-18T13:39:15;39.30;;;19.55;;
29574;SDS011;16507;51.046;6.406;2022-12-18T13:41:48;41.33;;;20.15;;
29574;SDS011;16507;51.046;6.406;2022-12-18T13:44:37;40.00;;;20.63;;
29574;SDS011;16507;51.046;6.406;2022-12-18T13:47:05;45.83;;;19.77;;
29574;SDS011;16507;51.046;6.406;2022-12-18T13:50:09;46.55;;;21.20;;
29574;SDS011;16507;51.046;6.406;2022-12-18T13:52:45;45.53;;;20.63;;
29574;SDS011;16507;51.046;6.406;2022-12-18T13:55:15;44.40;;;21.00;;
29574;SDS011;16507;51.046;6.406;2022-12-18T13:57:44;56.28;;;21.85;;
29574;SDS011;16507;51.046;6.406;2022-12-18T14:00:22;43.17;;;20.02;;
29574;SDS011;16507;51.046;6.406;2022-12-18T14:02:51;43.15;;;21.70;;
29574;SDS011;16507;51.046;6.406;2022-12-18T14:05:29;43.78;;;19.52;;
29574;SDS011;16507;51.046;6.406;2022-12-18T14:07:58;43.22;;;19.92;;
29574;SDS011;16507;51.046;6.406;2022-12-18T14:10:39;41.92;;;20.58;;
29574;SDS011;16507;51.046;6.406;2022-12-18T14:13:07;50.33;;;20.83;;
29574;SDS011;16507;51.046;6.406;2022-12-18T14:15:35;40.35;;;19.48;;
29574;SDS011;16507;51.046;6.406;2022-12-18T14:20:52;42.70;;;20.95;;
29574;SDS011;16507;51.046;6.406;2022-12-18T14:23:27;45.85;;;20.02;;
29574;SDS011;16507;51.046;6.406;2022-12-18T14:26:24;44.90;;;21.42;;
29574;SDS011;16507;51.046;6.406;2022-12-18T14:28:54;39.72;;;18.60;;
29574;SDS011;16507;51.046;6.406;2022-12-18T14:31:22;43.60;;;19.83;;
29574;SDS011;16507;51.046;6.406;2022-12-18T14:33:49;46.38;;;21.40;;
29574;SDS011;16507;51.046;6.406;2022-12-18T14:36:19;43.67;;;21.05;;
29574;SDS011;16507;51.046;6.406;2022-12-18T14:38:48;66.03;;;23.88;;
29574;SDS011;16507;51.046;6.406;2022-12-18T14:41:19;42.15;;;20.42;;
29574;SDS011;16507;51.046;6.406;2022-12-18T14:43:47;46.90;;;20.30;;
29574;SDS011;16507;51.046;6.406;2022-12-18T14:48:58;49.72;;;21.38;;
29574;SDS011;16507;51.046;6.406;2022-12-18T14:51:26;67.97;;;22.83;;
29574;SDS011;16507;51.046;6.406;2022-12-18T14:56:23;55.15;;;22.30;;
29574;SDS011;16507;51.046;6.406;2022-12-18T15:01:37;47.70;;;21.88;;
29574;SDS011;16507;51.046;6.406;2022-12-18T15:10:03;49.00;;;22.40;;
29574;SDS011;16507;51.046;6.406;2022-12-18T15:18:01;45.00;;;20.75;;
29574;SDS011;16507;51.046;6.406;2022-12-18T15:20:27;56.30;;;22.95;;
29574;SDS011;16507;51.046;6.406;2022-12-18T15:22:56;47.50;;;21.45;;
29574;SDS011;16507;51.046;6.406;2022-12-18T15:25:35;51.10;;;21.95;;
29574;SDS011;16507;51.046;6.406;2022-12-18T15:28:03;47.58;;;21.60;;
29574;SDS011;16507;51.046;6.406;2022-12-18T15:30:39;53.50;;;23.23;;
29574;SDS011;16507;51.046;6.406;2022-12-18T15:33:23;51.15;;;23.33;;
29574;SDS011;16507;51.046;6.406;2022-12-18T15:36:00;51.72;;;23.20;;
29574;SDS011;16507;51.046;6.406;2022-12-18T15:38:28;55.75;;;24.17;;
29574;SDS011;16507;51.046;6.406;2022-12-18T15:40:54;53.13;;;23.55;;
29574;SDS011;16507;51.046;6.406;2022-12-18T15:43:21;54.53;;;23.83;;
29574;SDS011;16507;51.046;6.406;2022-12-18T15:48:39;54.38;;;22.60;;
29574;SDS011;16507;51.046;6.406;2022-12-18T15:51:09;50.25;;;22.42;;
29574;SDS011;16507;51.046;6.406;2022-12-18T15:53:39;56.47;;;24.38;;
29574;SDS011;16507;51.046;6.406;2022-12-18T15:56:08;53.35;;;23.15;;
29574;SDS011;16507;51.046;6.406;2022-12-18T15:58:54;51.10;;;23.98;;
29574;SDS011;16507;51.046;6.406;2022-12-18T16:01:21;46.42;;;22.02;;
29574;SDS011;16507;51.046;6.406;2022-12-18T16:03:50;53.08;;;23.75;;
29574;SDS011;16507;51.046;6.406;2022-12-18T16:06:15;55.35;;;23.00;;
29574;SDS011;16507;51.046;6.406;2022-12-18T16:08:41;49.45;;;21.92;;
29574;SDS011;16507;51.046;6.406;2022-12-18T16:11:10;51.45;;;23.20;;
29574;SDS011;16507;51.046;6.406;2022-12-18T16:14:17;55.47;;;24.85;;
29574;SDS011;16507;51.046;6.406;2022-12-18T16:16:54;53.35;;;23.80;;
29574;SDS011;16507;51.046;6.406;2022-12-18T16:19:22;53.67;;;24.75;;
29574;SDS011;16507;51.046;6.406;2022-12-18T16:21:48;48.38;;;23.35;;
29574;SDS011;16507;51.046;6.406;2022-12-18T16:24:16;47.78;;;22.55;;
29574;SDS011;16507;51.046;6.406;2022-12-18T16:26:44;47.53;;;22.75;;
29574;SDS011;16507;51.046;6.406;2022-12-18T16:29:10;56.92;;;23.33;;
29574;SDS011;16507;51.046;6.406;2022-12-18T16:31:36;51.53;;;22.70;;
29574;SDS011;16507;51.046;6.406;2022-12-18T16:36:48;55.47;;;25.27;;
29574;SDS011;16507;51.046;6.406;2022-12-18T16:39:14;57.20;;;24.30;;
29574;SDS011;16507;51.046;6.406;2022-12-18T16:41:40;53.55;;;23.90;;
29574;SDS011;16507;51.046;6.406;2022-12-18T16:44:06;54.40;;;24.20;;
29574;SDS011;16507;51.046;6.406;2022-12-18T16:46:32;53.78;;;25.30;;
29574;SDS011;16507;51.046;6.406;2022-12-18T16:48:57;48.90;;;23.40;;